M I D A S
Marine Information and Data Acquisition System
Tripno 1130 of the Zeeleeuw from 2006-07-03 08:53:43 to 2006-07-03 12:58:50
Back to CruiseResearch ActivitiesStationsMapUnderway DataData graphs

EquipmentUnitsComments
TimeDGPSUTC
LatitudeDGPSDM.mWGS84
LongitudeDGPSDM.mWGS84
SpeedMeteo Stationm/sRelative wind speed
DirectionMeteo StationdegRelative wind direction
TemperatureMeteo Stationdeg CelciusAir temperature
PressureMeteo StationPaAtmospheric pressure
HumidityMeteo Station%Relative humidity
Missing or incorrect values are displayed as -999
Metereological data collected by the RV Zeeleeuw from 2006-07-03 08:50:50 to 2006-07-03 13:09:31
Time Latitude Longitude Speed Direction Temperature Pressure Humidity
2006-07-03 08:51 51°13.599 2°56.1 3 328 26.3 101610 37
2006-07-03 08:52 51°13.607 2°56.066 1.5 284 26.4 101610 36
2006-07-03 08:53 51°13.638 2°55.954 1.7 252 26.5 101610 37
2006-07-03 08:54 51°13.681 2°55.829 0.7 282 26.6 101610 36
2006-07-03 08:55 51°13.7 2°55.755 2.7 337 26.7 101600 36
2006-07-03 08:56 51°13.703 2°55.751 4 27 26.4 101610 36
2006-07-03 08:57 51°13.705 2°55.734 2.9 33 26.1 101610 36
2006-07-03 08:58 51°13.793 2°55.661 4 351 25.9 101610 36
2006-07-03 08:59 51°13.916 2°55.565 3.1 354 25.8 101610 38
2006-07-03 09:00 51°14.03 2°55.483 2.8 2 25.4 101610 39
2006-07-03 09:01 51°14.159 2°55.389 4 340 25.2 101610 39
2006-07-03 09:02 51°14.283 2°55.235 3.7 346 25.1 101610 40
2006-07-03 09:03 51°14.384 2°55.007 2.6 350 25 101610 41
2006-07-03 09:04 51°14.51 2°54.748 5.2 351 24.8 101610 41
2006-07-03 09:05 51°14.697 2°54.614 8.5 344 24.7 101600 44
2006-07-03 09:06 51°14.901 2°54.575 9 339 24.4 101600 47
2006-07-03 09:07 51°15.104 2°54.539 9.3 342 24 101600 51
2006-07-03 09:08 51°15.309 2°54.504 9.1 343 23.7 101600 54
2006-07-03 09:09 51°15.512 2°54.459 8.8 343 23.4 101610 55
2006-07-03 09:10 51°15.712 2°54.416 9.5 343 23.1 101600 56
2006-07-03 09:11 51°15.92 2°54.367 9.3 343 23 101610 61
2006-07-03 09:12 51°16.053 2°54.35 7 346 22.7 101610 61
2006-07-03 09:13 51°16.11 2°54.382 5.3 341 22.5 101610 60
2006-07-03 09:14 51°16.141 2°54.412 4.8 335 22.6 101620 59
2006-07-03 09:15 51°16.16 2°54.435 4.6 334 22.7 101620 60
2006-07-03 09:16 51°16.173 2°54.45 4.4 335 22.6 101620 61
2006-07-03 09:17 51°16.183 2°54.459 3.7 330 22.5 101620 62
2006-07-03 09:18 51°16.189 2°54.464 3.8 328 22.5 101620 63
2006-07-03 09:19 51°16.192 2°54.465 3.8 326 22.5 101620 64
2006-07-03 09:20 51°16.193 2°54.464 4.2 324 22.5 101610 63
2006-07-03 09:21 51°16.192 2°54.46 4.1 321 22.5 101620 61
2006-07-03 09:22 51°16.196 2°54.474 4.8 331 22.7 101610 59
2006-07-03 09:23 51°16.23 2°54.484 5 354 22.7 101610 58
2006-07-03 09:24 51°16.278 2°54.432 4.6 3 22.4 101620 61
2006-07-03 09:25 51°16.334 2°54.355 4 5 22.2 101620 62
2006-07-03 09:26 51°16.387 2°54.255 4 4 22 101620 63
2006-07-03 09:27 51°16.435 2°54.108 3.9 6 21.9 101620 65
2006-07-03 09:28 51°16.474 2°53.961 3.8 11 21.8 101620 65
2006-07-03 09:29 51°16.483 2°53.893 3.3 35 21.7 101620 67
2006-07-03 09:30 51°16.478 2°53.874 3.1 36 21.7 101620 67
2006-07-03 09:31 51°16.472 2°53.853 3.6 39 21.7 101620 68
2006-07-03 09:32 51°16.466 2°53.831 2.9 39 21.7 101620 68
2006-07-03 09:33 51°16.458 2°53.806 3.3 42 21.6 101610 68
2006-07-03 09:34 51°16.451 2°53.781 4.1 40 21.6 101620 69
2006-07-03 09:35 51°16.444 2°53.754 3.5 37 21.5 101610 69
2006-07-03 09:36 51°16.437 2°53.727 4.7 32 21.5 101610 70
2006-07-03 09:37 51°16.431 2°53.7 4.5 31 21.4 101610 70
2006-07-03 09:38 51°16.425 2°53.673 4.4 30 21.4 101610 71
2006-07-03 09:39 51°16.418 2°53.648 4.4 26 21.4 101610 72
2006-07-03 09:40 51°16.413 2°53.622 4 27 21.3 101610 72
2006-07-03 09:41 51°16.406 2°53.595 4.2 24 21.3 101610 73
2006-07-03 09:42 51°16.401 2°53.571 3.9 20 21.2 101610 73
2006-07-03 09:43 51°16.395 2°53.544 4.3 19 21.2 101610 73
2006-07-03 09:44 51°16.389 2°53.518 5 20 21.2 101610 73
2006-07-03 09:45 51°16.383 2°53.491 4.7 15 21.2 101610 73
2006-07-03 09:46 51°16.376 2°53.466 4.5 10 21.2 101610 73
2006-07-03 09:47 51°16.37 2°53.438 4.9 12 21.2 101610 74
2006-07-03 09:48 51°16.365 2°53.41 4.2 12 21.1 101610 76
2006-07-03 09:49 51°16.358 2°53.384 4.8 13 21 101610 76
2006-07-03 09:50 51°16.352 2°53.355 4.6 11 21 101610 76
2006-07-03 09:51 51°16.346 2°53.327 4.6 14 21 101610 77
2006-07-03 09:52 51°16.339 2°53.297 5.2 10 21 101610 78
2006-07-03 09:53 51°16.332 2°53.269 4.8 11 20.9 101600 79
2006-07-03 09:54 51°16.325 2°53.239 4.7 14 20.9 101600 79
2006-07-03 09:55 51°16.319 2°53.209 4.5 13 20.9 101610 80
2006-07-03 09:56 51°16.312 2°53.178 4.6 15 20.8 101610 80
2006-07-03 09:57 51°16.305 2°53.148 4.7 13 20.8 101600 80
2006-07-03 09:58 51°16.299 2°53.118 4.1 15 20.9 101600 80
2006-07-03 09:59 51°16.291 2°53.088 3.5 15 20.9 101600 81
2006-07-03 10:00 51°16.284 2°53.058 4.4 15 20.9 101600 81
2006-07-03 10:01 51°16.277 2°53.028 5.4 14 20.9 101600 81
2006-07-03 10:02 51°16.27 2°52.997 5.1 13 20.8 101600 81
2006-07-03 10:03 51°16.263 2°52.965 4.6 15 20.9 101600 81
2006-07-03 10:04 51°16.255 2°52.935 5.3 10 20.9 101600 81
2006-07-03 10:05 51°16.248 2°52.904 4.9 9 20.8 101600 81
2006-07-03 10:06 51°16.239 2°52.875 4.9 9 20.8 101600 81
2006-07-03 10:07 51°16.231 2°52.846 5 12 20.8 101600 82
2006-07-03 10:08 51°16.222 2°52.815 4.9 12 20.8 101600 82
2006-07-03 10:09 51°16.221 2°52.781 5.3 4 20.8 101590 82
2006-07-03 10:10 51°16.265 2°52.77 7.1 283 20.8 101590 81
2006-07-03 10:11 51°16.282 2°52.841 7.8 278 20.9 101590 81
2006-07-03 10:12 51°16.245 2°52.932 8.1 283 21 101580 80
2006-07-03 10:13 51°16.214 2°53.046 8.2 278 21.1 101580 79
2006-07-03 10:14 51°16.203 2°53.177 8.1 280 21.2 101580 78
2006-07-03 10:15 51°16.195 2°53.302 8.4 281 21.3 101580 78
2006-07-03 10:16 51°16.184 2°53.435 8.6 279 21.3 101580 77
2006-07-03 10:17 51°16.187 2°53.562 9.2 277 21.4 101580 77
2006-07-03 10:18 51°16.194 2°53.691 8.5 282 21.5 101580 76
2006-07-03 10:19 51°16.196 2°53.808 8.5 279 21.6 101580 76
2006-07-03 10:20 51°16.196 2°53.916 7.7 282 21.6 101570 75
2006-07-03 10:21 51°16.205 2°54.02 9 277 21.6 101570 75
2006-07-03 10:22 51°16.24 2°54.148 10.5 283 21.6 101580 74
2006-07-03 10:23 51°16.266 2°54.271 7.7 283 21.7 101580 74
2006-07-03 10:24 51°16.261 2°54.274 6.8 279 21.7 101580 73
2006-07-03 10:25 51°16.256 2°54.266 6.6 284 21.8 101590 73
2006-07-03 10:26 51°16.249 2°54.251 6 280 21.8 101590 73
2006-07-03 10:27 51°16.24 2°54.232 6.1 284 21.8 101590 72
2006-07-03 10:28 51°16.231 2°54.209 6 280 21.8 101580 71
2006-07-03 10:29 51°16.222 2°54.186 7.4 285 21.9 101580 70
2006-07-03 10:30 51°16.229 2°54.176 7.6 353 21.9 101580 69
2006-07-03 10:31 51°16.251 2°54.153 8.2 354 21.8 101570 69
2006-07-03 10:32 51°16.269 2°54.125 8.2 354 21.7 101580 70
2006-07-03 10:33 51°16.284 2°54.095 7.8 356 21.6 101570 69
2006-07-03 10:34 51°16.298 2°54.065 7.9 354 21.6 101570 69
2006-07-03 10:35 51°16.31 2°54.035 7.9 356 21.6 101570 70
2006-07-03 10:36 51°16.322 2°54.005 7.5 356 21.6 101570 69
2006-07-03 10:37 51°16.333 2°53.975 7.2 353 21.6 101570 70
2006-07-03 10:38 51°16.344 2°53.945 8.1 356 21.6 101570 70
2006-07-03 10:39 51°16.354 2°53.913 8.1 355 21.6 101570 69
2006-07-03 10:40 51°16.362 2°53.882 7.8 354 21.7 101570 67
2006-07-03 10:41 51°16.369 2°53.849 6.7 356 21.8 101570 67
2006-07-03 10:42 51°16.374 2°53.817 6.7 354 21.8 101570 67
2006-07-03 10:43 51°16.366 2°53.781 6.6 2 21.8 101570 68
2006-07-03 10:44 51°16.354 2°53.744 7.9 11 21.8 101570 68
2006-07-03 10:45 51°16.346 2°53.702 7.1 20 21.8 101570 68
2006-07-03 10:46 51°16.368 2°53.617 7.8 12 21.8 101570 68
2006-07-03 10:47 51°16.437 2°53.455 8.1 10 21.8 101560 68
2006-07-03 10:48 51°16.443 2°53.397 6.1 16 21.8 101570 68
2006-07-03 10:49 51°16.423 2°53.372 6.5 21 21.8 101570 69
2006-07-03 10:50 51°16.412 2°53.336 6 23 21.8 101570 70
2006-07-03 10:51 51°16.426 2°53.258 7 16 21.8 101570 71
2006-07-03 10:52 51°16.458 2°53.165 7.7 15 21.8 101570 70
2006-07-03 10:53 51°16.502 2°53.059 9.1 13 21.8 101570 68
2006-07-03 10:54 51°16.552 2°52.959 8.1 8 21.8 101570 67
2006-07-03 10:55 51°16.603 2°52.861 7.6 9 21.7 101570 69
2006-07-03 10:56 51°16.654 2°52.765 6.9 8 21.6 101570 69
2006-07-03 10:57 51°16.71 2°52.687 8.2 -999 21.5 101570 69
2006-07-03 10:58 51°16.77 2°52.645 8.2 355 21.5 101560 70
2006-07-03 10:59 51°16.828 2°52.614 8.2 355 21.4 101560 71
2006-07-03 11:00 51°16.889 2°52.583 7.9 357 21.4 101560 71
2006-07-03 11:01 51°16.949 2°52.55 8.6 356 21.4 101560 71
2006-07-03 11:02 51°17.008 2°52.518 8.9 357 21.3 101550 71
2006-07-03 11:03 51°17.066 2°52.488 9.6 356 21.3 101560 70
2006-07-03 11:04 51°17.127 2°52.456 8.8 356 21.4 101560 69
2006-07-03 11:05 51°17.185 2°52.425 8.1 358 21.5 101560 69
2006-07-03 11:06 51°17.243 2°52.38 8 360 21.5 101560 69
2006-07-03 11:07 51°17.302 2°52.333 8.9 357 21.4 101560 69
2006-07-03 11:08 51°17.361 2°52.287 8.2 357 21.5 101560 68
2006-07-03 11:09 51°17.418 2°52.242 8 357 21.6 101560 67
2006-07-03 11:10 51°17.476 2°52.198 7.8 354 21.5 101560 68
2006-07-03 11:11 51°17.534 2°52.153 7.8 358 21.6 101560 68
2006-07-03 11:12 51°17.59 2°52.107 9.3 358 21.6 101560 68
2006-07-03 11:13 51°17.648 2°52.059 9.3 360 21.6 101550 66
2006-07-03 11:14 51°17.705 2°52.011 9 356 21.6 101550 66
2006-07-03 11:15 51°17.762 2°51.965 8.3 357 21.7 101560 65
2006-07-03 11:16 51°17.819 2°51.918 7.5 356 21.7 101560 64
2006-07-03 11:17 51°17.876 2°51.87 7.3 359 21.7 101560 65
2006-07-03 11:18 51°17.934 2°51.824 8.5 359 21.7 101560 68
2006-07-03 11:19 51°17.991 2°51.777 9.1 357 21.6 101560 66
2006-07-03 11:20 51°18.05 2°51.732 9.7 358 21.6 101560 66
2006-07-03 11:21 51°18.107 2°51.683 8.8 358 21.6 101560 65
2006-07-03 11:22 51°18.165 2°51.623 8.1 359 21.7 101560 66
2006-07-03 11:23 51°18.221 2°51.552 7.6 2 21.6 101560 66
2006-07-03 11:24 51°18.276 2°51.477 6.9 2 21.6 101560 66
2006-07-03 11:25 51°18.332 2°51.404 7.2 2 21.6 101560 67
2006-07-03 11:26 51°18.388 2°51.33 8.2 3 21.5 101560 68
2006-07-03 11:27 51°18.444 2°51.254 7.7 4 21.5 101560 67
2006-07-03 11:28 51°18.498 2°51.163 7.1 7 21.5 101560 68
2006-07-03 11:29 51°18.543 2°51.073 5 6 21.5 101560 69
2006-07-03 11:30 51°18.57 2°51.007 6 6 21.4 101560 70
2006-07-03 11:31 51°18.565 2°50.96 6.7 8 21.3 101570 70
2006-07-03 11:32 51°18.557 2°50.912 6.2 13 21.3 101570 70
2006-07-03 11:33 51°18.547 2°50.864 6 17 21.4 101570 70
2006-07-03 11:34 51°18.537 2°50.814 6.3 13 21.4 101570 70
2006-07-03 11:35 51°18.527 2°50.766 6.8 16 21.4 101570 71
2006-07-03 11:36 51°18.517 2°50.716 6.2 13 21.3 101570 71
2006-07-03 11:37 51°18.507 2°50.669 6.7 11 21.3 101570 71
2006-07-03 11:38 51°18.497 2°50.621 6.3 8 21.3 101570 70
2006-07-03 11:39 51°18.487 2°50.574 6.5 9 21.3 101560 72
2006-07-03 11:40 51°18.475 2°50.525 6.4 8 21.2 101560 72
2006-07-03 11:41 51°18.464 2°50.476 6.6 11 21.2 101560 72
2006-07-03 11:42 51°18.452 2°50.427 6.6 10 21.1 101560 72
2006-07-03 11:43 51°18.441 2°50.378 6.3 13 21.1 101560 73
2006-07-03 11:44 51°18.428 2°50.328 7.2 11 21.1 101560 73
2006-07-03 11:45 51°18.416 2°50.279 6.8 11 21.1 101560 72
2006-07-03 11:46 51°18.404 2°50.229 6 10 21.1 101550 71
2006-07-03 11:47 51°18.394 2°50.177 5.9 4 21.1 101560 71
2006-07-03 11:48 51°18.401 2°50.127 6.9 346 21.1 101550 72
2006-07-03 11:49 51°18.415 2°50.104 6.9 278 21.1 101550 72
2006-07-03 11:50 51°18.424 2°50.132 8.1 277 21.3 101550 70
2006-07-03 11:51 51°18.434 2°50.215 7.5 282 21.3 101550 69
2006-07-03 11:52 51°18.443 2°50.29 7.5 281 21.4 101550 68
2006-07-03 11:53 51°18.45 2°50.363 6.9 283 21.4 101550 69
2006-07-03 11:54 51°18.452 2°50.438 7.3 277 21.4 101550 70
2006-07-03 11:55 51°18.451 2°50.514 7.8 282 21.4 101550 71
2006-07-03 11:56 51°18.451 2°50.586 7.9 277 21.4 101550 71
2006-07-03 11:57 51°18.45 2°50.646 7.1 283 21.4 101550 71
2006-07-03 11:58 51°18.448 2°50.693 7.3 278 21.4 101550 71
2006-07-03 11:59 51°18.443 2°50.733 7.2 276 21.3 101550 71
2006-07-03 12:00 51°18.438 2°50.772 7.8 283 21.4 101550 71
2006-07-03 12:01 51°18.432 2°50.809 7.7 279 21.3 101550 71
2006-07-03 12:02 51°18.432 2°50.841 7.5 279 21.4 101550 71
2006-07-03 12:03 51°18.439 2°50.867 7.5 282 21.4 101550 72
2006-07-03 12:04 51°18.452 2°50.886 7.1 323 21.5 101550 71
2006-07-03 12:05 51°18.469 2°50.903 7 280 21.6 101550 70
2006-07-03 12:06 51°18.486 2°50.919 6.8 277 21.6 101550 70
2006-07-03 12:07 51°18.503 2°50.938 6.7 283 21.7 101550 71
2006-07-03 12:08 51°18.519 2°50.96 7 279 21.8 101560 71
2006-07-03 12:09 51°18.537 2°50.987 7.2 279 21.8 101560 70
2006-07-03 12:10 51°18.538 2°51.005 6.7 282 21.8 101550 70
2006-07-03 12:11 51°18.523 2°51.006 7 277 21.8 101560 69
2006-07-03 12:12 51°18.503 2°50.997 7.1 277 21.9 101560 69
2006-07-03 12:13 51°18.483 2°50.98 6.5 277 21.9 101550 68
2006-07-03 12:14 51°18.463 2°50.957 6.5 284 22 101550 68
2006-07-03 12:15 51°18.443 2°50.931 6.1 277 22 101560 67
2006-07-03 12:16 51°18.425 2°50.919 6.2 278 22 101550 67
2006-07-03 12:17 51°18.416 2°50.925 6 278 22.1 101550 67
2006-07-03 12:18 51°18.413 2°50.941 6.4 278 22 101550 67
2006-07-03 12:19 51°18.414 2°50.966 7.1 279 22 101550 68
2006-07-03 12:20 51°18.415 2°50.997 7.7 277 21.9 101540 68
2006-07-03 12:21 51°18.415 2°51.027 6.9 279 21.8 101540 68
2006-07-03 12:22 51°18.414 2°51.053 6.9 279 21.8 101540 68
2006-07-03 12:23 51°18.412 2°51.078 7.5 281 21.8 101540 68
2006-07-03 12:24 51°18.411 2°51.102 7.4 283 21.8 101540 68
2006-07-03 12:25 51°18.409 2°51.124 6.7 277 21.8 101540 67
2006-07-03 12:26 51°18.407 2°51.148 6.7 284 21.9 101540 67
2006-07-03 12:27 51°18.405 2°51.171 6.8 284 21.9 101550 68
2006-07-03 12:28 51°18.402 2°51.189 6.4 285 21.9 101540 67
2006-07-03 12:29 51°18.392 2°51.185 5.9 279 22 101540 68
2006-07-03 12:30 51°18.377 2°51.176 5.8 283 22 101550 69
2006-07-03 12:31 51°18.332 2°51.245 5.6 285 22 101540 70
2006-07-03 12:32 51°18.2 2°51.329 6.4 279 22 101550 70
2006-07-03 12:33 51°18.027 2°51.505 7.2 279 22 101540 69
2006-07-03 12:34 51°17.852 2°51.688 7.2 278 22 101540 69
2006-07-03 12:35 51°17.67 2°51.877 7.6 281 22 101540 68
2006-07-03 12:36 51°17.481 2°52.05 7.6 278 22 101530 68
2006-07-03 12:37 51°17.299 2°52.232 7.7 282 22.1 101530 67
2006-07-03 12:38 51°17.107 2°52.385 7.4 278 22.1 101530 68
2006-07-03 12:39 51°16.912 2°52.551 8.2 277 22.1 101530 68
2006-07-03 12:40 51°16.731 2°52.736 8 280 22.1 101520 66
2006-07-03 12:41 51°16.54 2°52.905 7.2 279 22.3 101520 66
2006-07-03 12:42 51°16.335 2°53.021 6.7 278 22.3 101520 65
2006-07-03 12:43 51°16.128 2°53.132 6.8 283 22.3 101520 64
2006-07-03 12:44 51°15.915 2°53.236 6.8 278 22.4 101520 63
2006-07-03 12:45 51°15.708 2°53.334 6.1 285 22.5 101520 63
2006-07-03 12:46 51°15.506 2°53.44 5.8 279 22.5 101520 65
2006-07-03 12:47 51°15.298 2°53.551 7 283 22.5 101520 66
2006-07-03 12:48 51°15.097 2°53.671 6.3 285 22.4 101520 63
2006-07-03 12:49 51°14.922 2°53.846 8.6 282 22.6 101510 61
2006-07-03 12:50 51°14.773 2°54.07 8.6 285 22.7 101510 61
2006-07-03 12:51 51°14.641 2°54.324 10.5 279 22.7 101500 61
2006-07-03 12:52 51°14.532 2°54.585 8.8 282 22.7 101500 60
2006-07-03 12:53 51°14.435 2°54.825 8.5 282 22.8 101500 59
2006-07-03 12:54 51°14.352 2°55.068 8.7 281 23 101490 57
2006-07-03 12:55 51°14.253 2°55.277 6 31 23.2 101500 57
2006-07-03 12:56 51°14.153 2°55.39 4 280 23.6 101510 53
2006-07-03 12:57 51°14.071 2°55.453 2.2 22 23.9 101510 52
2006-07-03 12:58 51°13.995 2°55.508 6.9 284 24.3 101510 48
2006-07-03 12:59 51°13.915 2°55.564 4.9 277 25.1 101500 37
2006-07-03 13:00 51°13.83 2°55.632 4.1 331 25.9 101500 34
2006-07-03 13:01 51°13.758 2°55.706 4.8 332 26.6 101490 32
2006-07-03 13:02 51°13.699 2°55.808 3.8 323 27 101490 30
2006-07-03 13:03 51°13.656 2°55.911 6.6 327 27.3 101490 30
2006-07-03 13:04 51°13.626 2°56.006 8.3 342 27.5 101480 31
2006-07-03 13:05 51°13.611 2°56.077 5.6 279 27.5 101490 32
2006-07-03 13:06 51°13.603 2°56.094 4.7 284 27.7 101490 31
2006-07-03 13:07 51°13.603 2°56.098 6.2 284 27.9 101490 31
2006-07-03 13:08 51°13.603 2°56.097 4.1 321 28.1 101490 31